Ordynskoe, Russia
Current Conditions -  °F | °C
As of 1:30 PM on Thursday 23 Oct 2014 (Local Time) from UNNT Reporting Station
Clear Clear  
Wind Chill: 41°   Ceiling: Unl
Heat Index: 41°   Visibility: 6mi
Dew Point: 30°   Wind: 2mph
Humidity: 65%   Direction: 180°S
Pressure: 29.88"   Gusts: NA
Location:  54.37°N, 81.95°E
Report Text: UNNT 230630Z 18001MPS CAVOK 05/M01 Q1012 25090070 16090070NOSIG RMK QFE749/0999
Loading
Personal Weather Stations






























Interactive Weather Map
Tropical Storm Tracking
New forecast layout! Learn more

10-Day Weather Forecast

Advertisements
Track Severe Weather on mobile